createdAt,value
2019-06-08T00:01:22.640Z,16.25
2019-06-08T00:03:52.291Z,16.32
2019-06-08T00:06:22.949Z,16.22
2019-06-08T00:08:52.489Z,16.20
2019-06-08T00:11:23.268Z,16.24
2019-06-08T00:13:52.925Z,16.23
2019-06-08T00:16:23.667Z,16.36
2019-06-08T00:18:53.354Z,16.22
2019-06-08T00:21:23.907Z,16.19
2019-06-08T00:23:53.580Z,16.04
2019-06-08T00:26:24.238Z,15.93
2019-06-08T00:28:53.949Z,16.04
2019-06-08T00:31:23.416Z,16.04
2019-06-08T00:33:52.793Z,16.01
2019-06-08T00:36:22.982Z,16.03
2019-06-08T00:38:52.638Z,16.22
2019-06-08T00:41:22.403Z,15.99
2019-06-08T00:43:53.359Z,15.85
2019-06-08T00:46:23.640Z,16.00
2019-06-08T00:48:53.084Z,16.06
2019-06-08T00:51:23.092Z,16.09
2019-06-08T00:53:52.919Z,16.11
2019-06-08T00:56:23.728Z,16.05
2019-06-08T00:58:53.176Z,16.12
2019-06-08T01:01:24.686Z,15.99
2019-06-08T01:03:53.716Z,16.08
2019-06-08T01:06:23.123Z,16.12
2019-06-08T01:08:52.493Z,16.13
2019-06-08T01:11:22.573Z,16.18
2019-06-08T01:13:52.044Z,16.23
2019-06-08T01:16:21.413Z,16.20
2019-06-08T01:18:50.907Z,16.26
2019-06-08T01:21:21.283Z,16.13
2019-06-08T01:23:50.771Z,16.27
2019-06-08T01:26:20.147Z,16.33
2019-06-08T01:28:49.550Z,16.36
2019-06-08T01:31:20.298Z,16.50
2019-06-08T01:33:49.881Z,16.50
2019-06-08T01:36:20.607Z,16.49
2019-06-08T01:38:50.143Z,16.45
2019-06-08T01:41:19.523Z,16.26
2019-06-08T01:43:49.019Z,16.27
2019-06-08T01:46:18.388Z,16.19
2019-06-08T01:48:47.791Z,16.00
2019-06-08T01:51:17.233Z,16.03
2019-06-08T01:53:46.726Z,16.10
2019-06-08T01:56:16.094Z,16.21
2019-06-08T01:58:45.471Z,16.21
2019-06-08T02:01:14.881Z,16.09
2019-06-08T02:03:44.276Z,16.02
2019-06-08T02:06:13.681Z,16.03
2019-06-08T02:08:43.056Z,15.89
2019-06-08T02:11:12.448Z,15.90
2019-06-08T02:13:41.822Z,16.15
2019-06-08T02:16:11.360Z,16.07
2019-06-08T02:18:50.127Z,16.03
2019-06-08T02:21:11.813Z,15.98
2019-06-08T02:23:41.207Z,15.99
2019-06-08T02:26:10.590Z,16.24
2019-06-08T02:28:40.187Z,16.01
2019-06-08T02:31:09.709Z,15.85
2019-06-08T02:33:40.498Z,15.87
2019-06-08T02:36:10.077Z,16.06
2019-06-08T02:38:39.643Z,15.91
2019-06-08T02:41:09.036Z,16.22
2019-06-08T02:43:40.312Z,15.84
2019-06-08T02:46:09.522Z,16.11
2019-06-08T02:49:00.497Z,15.89
2019-06-08T02:51:10.243Z,15.90
2019-06-08T02:53:41.572Z,15.90
2019-06-08T02:56:14.505Z,15.74
2019-06-08T02:58:44.463Z,15.79
2019-06-08T03:01:16.805Z,15.75
2019-06-08T03:03:48.219Z,15.74
2019-06-08T03:06:20.453Z,15.77
2019-06-08T03:08:50.991Z,15.69
2019-06-08T03:11:21.568Z,15.73
2019-06-08T03:13:52.439Z,15.54
2019-06-08T03:16:21.852Z,15.59
2019-06-08T03:18:51.216Z,15.44
2019-06-08T03:21:20.587Z,15.57
2019-06-08T03:23:49.970Z,15.72
2019-06-08T03:26:19.469Z,15.79
2019-06-08T03:28:48.848Z,15.77
2019-06-08T03:31:18.221Z,15.61
2019-06-08T03:33:55.153Z,15.64
2019-06-08T03:36:18.763Z,15.76
2019-06-08T03:38:48.180Z,15.94
2019-06-08T03:41:17.542Z,15.87
2019-06-08T03:43:46.912Z,15.73
2019-06-08T03:46:16.315Z,15.80
2019-06-08T03:48:46.480Z,15.90
2019-06-08T03:51:16.184Z,15.77
2019-06-08T03:53:47.418Z,15.74
2019-06-08T03:56:16.677Z,15.63
2019-06-08T03:58:47.955Z,15.70
2019-06-08T04:01:17.177Z,15.62
2019-06-08T04:03:46.650Z,15.57
2019-06-08T04:06:16.029Z,15.62
2019-06-08T04:08:47.506Z,15.64
2019-06-08T04:11:16.621Z,15.76
2019-06-08T04:13:47.188Z,15.67
2019-06-08T04:16:16.919Z,15.69
2019-06-08T04:18:46.823Z,15.63
2019-06-08T04:21:16.770Z,15.61
2019-06-08T04:23:47.156Z,15.68
2019-06-08T04:26:16.687Z,15.89
2019-06-08T04:28:47.229Z,15.72
2019-06-08T04:31:17.191Z,15.74
2019-06-08T04:33:46.829Z,15.61
2019-06-08T04:36:16.317Z,15.68
2019-06-08T04:38:47.659Z,15.74
2019-06-08T04:41:17.162Z,15.81
2019-06-08T04:43:47.289Z,15.64
2019-06-08T04:46:17.691Z,15.51
2019-06-08T04:48:47.933Z,15.45
2019-06-08T04:51:18.274Z,15.46
2019-06-08T04:53:49.330Z,15.47
2019-06-08T04:56:18.742Z,15.60
2019-06-08T04:58:48.966Z,15.57
2019-06-08T05:01:19.253Z,15.59
2019-06-08T05:03:49.953Z,15.56
2019-06-08T05:06:19.862Z,15.50
2019-06-08T05:08:49.716Z,15.53
2019-06-08T05:11:19.276Z,15.53
2019-06-08T05:13:49.615Z,15.57
2019-06-08T05:16:19.533Z,15.55
2019-06-08T05:18:49.702Z,15.55
2019-06-08T05:21:19.418Z,15.52
2019-06-08T05:23:57.918Z,15.58
2019-06-08T05:26:19.967Z,15.59
2019-06-08T05:28:49.588Z,15.72
2019-06-08T05:31:19.156Z,15.71
2019-06-08T05:33:49.698Z,15.87
2019-06-08T05:36:19.270Z,15.93
2019-06-08T05:38:49.993Z,15.96
2019-06-08T05:41:19.552Z,15.79
2019-06-08T05:43:49.957Z,15.79
2019-06-08T05:46:19.546Z,15.94
2019-06-08T05:48:50.320Z,15.89
2019-06-08T05:51:19.786Z,15.67
2019-06-08T05:53:50.166Z,15.69
2019-06-08T05:56:19.737Z,15.92
2019-06-08T05:58:50.373Z,15.73
2019-06-08T06:01:20.066Z,15.76
2019-06-08T06:03:51.368Z,15.73
2019-06-08T06:06:20.544Z,15.66
2019-06-08T06:08:50.928Z,15.80
2019-06-08T06:11:20.515Z,15.67
2019-06-08T06:13:51.379Z,15.82
2019-06-08T06:16:21.000Z,15.88
2019-06-08T06:18:52.170Z,15.77
2019-06-08T06:21:21.445Z,15.84
2019-06-08T06:23:51.514Z,15.91
2019-06-08T06:26:21.191Z,15.92
2019-06-08T06:28:51.863Z,15.81
2019-06-08T06:31:21.319Z,15.92
2019-06-08T06:33:52.096Z,16.10
2019-06-08T06:36:21.810Z,16.42
2019-06-08T06:38:52.264Z,16.37
2019-06-08T06:41:21.726Z,16.30
2019-06-08T06:43:52.190Z,16.29
2019-06-08T06:46:21.697Z,16.25
2019-06-08T06:48:52.387Z,16.35
2019-06-08T06:51:26.323Z,16.31
2019-06-08T06:53:53.412Z,16.26
2019-06-08T06:56:22.905Z,16.39
2019-06-08T06:58:53.367Z,16.32
2019-06-08T07:01:23.273Z,16.48
2019-06-08T07:03:52.656Z,16.37
2019-06-08T07:06:22.163Z,16.48
2019-06-08T07:08:52.445Z,16.58
2019-06-08T07:11:22.013Z,16.71
2019-06-08T07:13:51.389Z,16.66
2019-06-08T07:16:20.798Z,16.78
2019-06-08T07:18:50.291Z,16.84
2019-06-08T07:21:19.667Z,16.87
2019-06-08T07:23:49.917Z,17.02
2019-06-08T07:26:20.264Z,17.14
2019-06-08T07:28:51.850Z,17.12
2019-06-08T07:31:21.107Z,17.24
2019-06-08T07:33:51.954Z,17.16
2019-06-08T07:36:21.682Z,16.97
2019-06-08T07:38:51.417Z,16.83
2019-06-08T07:41:20.823Z,17.13
2019-06-08T07:43:50.757Z,17.18
2019-06-08T07:46:20.361Z,17.14
2019-06-08T07:48:50.401Z,17.11
2019-06-08T07:51:19.899Z,17.05
2019-06-08T07:53:49.851Z,17.17
2019-06-08T07:56:19.496Z,17.09
2019-06-08T07:58:50.258Z,17.02
2019-06-08T08:01:35.310Z,16.91
2019-06-08T08:03:52.148Z,17.04
2019-06-08T08:06:21.912Z,16.92
2019-06-08T08:08:52.637Z,16.80
2019-06-08T08:11:22.040Z,16.93
2019-06-08T08:13:53.185Z,17.09
2019-06-08T08:16:22.849Z,17.14
2019-06-08T08:18:53.397Z,16.89
2019-06-08T08:21:26.190Z,16.94
2019-06-08T08:23:55.910Z,16.87
2019-06-08T08:26:27.377Z,16.98
2019-06-08T08:28:59.810Z,17.10
2019-06-08T08:31:28.009Z,16.74
2019-06-08T08:34:03.359Z,16.97
2019-06-08T08:36:32.520Z,17.45
2019-06-08T08:39:02.379Z,17.58
2019-06-08T08:41:31.558Z,17.63
2019-06-08T08:44:04.509Z,17.85
2019-06-08T08:46:32.386Z,18.03
2019-06-08T08:49:09.488Z,18.19
2019-06-08T08:51:33.436Z,17.96
2019-06-08T08:54:05.247Z,17.69
2019-06-08T08:56:34.370Z,17.64
2019-06-08T08:59:03.907Z,17.61
2019-06-08T09:01:33.546Z,17.85
2019-06-08T09:04:05.107Z,17.99
2019-06-08T09:06:34.447Z,18.58
2019-06-08T09:09:05.026Z,18.59
2019-06-08T09:11:34.593Z,18.73
2019-06-08T09:14:07.091Z,18.97
2019-06-08T09:16:35.514Z,19.38
2019-06-08T09:19:05.037Z,19.62
2019-06-08T09:21:34.558Z,19.81
2019-06-08T09:24:04.297Z,19.42
2019-06-08T09:26:34.068Z,19.14
2019-06-08T09:29:08.288Z,18.96
2019-06-08T09:31:35.078Z,18.61
2019-06-08T09:34:11.018Z,18.82
2019-06-08T09:36:38.032Z,19.16
2019-06-08T09:39:12.290Z,18.72
2019-06-08T09:41:39.504Z,18.61
2019-06-08T09:44:11.445Z,18.74
2019-06-08T09:46:40.340Z,18.58
2019-06-08T09:49:11.846Z,18.69
2019-06-08T09:51:40.925Z,18.70
2019-06-08T09:54:12.633Z,19.05
2019-06-08T09:56:41.522Z,18.78
2019-06-08T09:59:14.500Z,19.22
2019-06-08T10:01:42.130Z,19.65
2019-06-08T10:04:11.491Z,19.61
2019-06-08T10:06:41.139Z,19.99
2019-06-08T10:09:10.525Z,19.51
2019-06-08T10:11:39.912Z,19.40
2019-06-08T10:14:12.481Z,19.71
2019-06-08T10:16:40.420Z,19.36
2019-06-08T10:19:10.459Z,19.25
2019-06-08T10:21:43.021Z,18.90
2019-06-08T10:24:11.271Z,19.32
2019-06-08T10:26:40.639Z,19.83
2019-06-08T10:29:10.747Z,19.95
2019-06-08T10:31:43.613Z,19.83
2019-06-08T10:34:11.784Z,19.45
2019-06-08T10:36:41.338Z,19.74
2019-06-08T10:39:11.932Z,19.48
2019-06-08T10:41:41.696Z,19.51
2019-06-08T10:44:13.919Z,19.48
2019-06-08T10:46:42.397Z,19.66
2019-06-08T10:49:14.371Z,19.80
2019-06-08T10:51:42.925Z,19.79
2019-06-08T10:54:12.284Z,20.22
2019-06-08T10:56:41.841Z,19.67
2019-06-08T10:59:12.401Z,19.84
2019-06-08T11:01:42.091Z,20.01
2019-06-08T11:04:11.763Z,19.68
2019-06-08T11:06:41.171Z,20.07
2019-06-08T11:09:13.270Z,20.15
2019-06-08T11:11:41.713Z,20.20
2019-06-08T11:14:13.110Z,19.97
2019-06-08T11:16:42.311Z,20.16
2019-06-08T11:19:13.684Z,20.43
2019-06-08T11:21:42.840Z,20.71
2019-06-08T11:24:21.676Z,20.33
2019-06-08T11:26:43.328Z,20.42
2019-06-08T11:29:13.908Z,20.39
2019-06-08T11:31:43.622Z,20.91
2019-06-08T11:34:13.325Z,20.40
2019-06-08T11:36:42.723Z,20.40
2019-06-08T11:39:12.811Z,20.71
2019-06-08T11:41:42.580Z,20.82
2019-06-08T11:44:14.669Z,21.04
2019-06-08T11:46:43.231Z,20.78
2019-06-08T11:49:14.857Z,21.13
2019-06-08T11:51:43.794Z,21.46
2019-06-08T11:54:29.638Z,21.52
2019-06-08T11:56:45.379Z,22.27
2019-06-08T11:59:16.122Z,23.07
2019-06-08T12:01:45.542Z,22.89
2019-06-08T12:04:14.947Z,23.49
2019-06-08T12:06:44.329Z,24.33
2019-06-08T12:09:14.141Z,24.14
2019-06-08T12:11:43.582Z,24.11
2019-06-08T12:14:14.361Z,23.86
2019-06-08T12:16:43.909Z,24.13
2019-06-08T12:19:17.012Z,24.36
2019-06-08T12:21:44.363Z,25.22
2019-06-08T12:24:14.447Z,25.01
2019-06-08T12:26:47.770Z,26.52
2019-06-08T12:29:18.900Z,26.21
2019-06-08T12:31:48.303Z,27.15
2019-06-08T12:34:18.488Z,26.70
2019-06-08T12:36:48.213Z,25.29
2019-06-08T12:39:20.987Z,26.42
2019-06-08T12:41:49.007Z,25.97
2019-06-08T12:44:21.741Z,25.56
2019-06-08T12:46:49.587Z,27.26
2019-06-08T12:49:20.390Z,27.11
2019-06-08T12:51:51.765Z,27.49
2019-06-08T12:54:20.989Z,28.56
2019-06-08T12:56:50.569Z,29.44
2019-06-08T12:59:22.586Z,29.84
2019-06-08T13:01:51.191Z,30.21
2019-06-08T13:04:23.356Z,28.81
2019-06-08T13:06:51.680Z,29.22
2019-06-08T13:09:21.053Z,27.90
2019-06-08T13:11:50.815Z,28.85
2019-06-08T13:14:20.838Z,28.83
2019-06-08T13:16:53.030Z,31.45
2019-06-08T13:19:21.520Z,31.07
2019-06-08T13:21:50.896Z,28.74
2019-06-08T13:24:20.256Z,30.66
2019-06-08T13:26:50.761Z,29.87
2019-06-08T13:29:22.032Z,29.18
2019-06-08T13:31:51.683Z,29.08
2019-06-08T13:34:24.073Z,28.49
2019-06-08T13:36:52.299Z,28.20
2019-06-08T13:39:23.072Z,30.06
2019-06-08T13:41:52.634Z,30.10
2019-06-08T13:44:22.047Z,30.87
2019-06-08T13:46:51.420Z,31.67
2019-06-08T13:49:26.737Z,31.43
2019-06-08T13:51:52.004Z,31.02
2019-06-08T13:54:22.733Z,29.59
2019-06-08T13:56:52.510Z,29.13
2019-06-08T13:59:25.015Z,28.57
2019-06-08T14:01:53.209Z,27.41
2019-06-08T14:04:23.767Z,26.83
2019-06-08T14:06:53.524Z,25.73
2019-06-08T14:09:23.328Z,25.40
2019-06-08T14:11:52.864Z,25.31
2019-06-08T14:14:23.918Z,25.08
2019-06-08T14:16:53.576Z,24.90
2019-06-08T14:19:24.491Z,23.85
2019-06-08T14:21:54.294Z,23.70
2019-06-08T14:24:28.058Z,23.31
2019-06-08T14:26:54.781Z,23.52
2019-06-08T14:29:24.806Z,23.30
2019-06-08T14:31:57.597Z,23.35
2019-06-08T14:34:29.048Z,23.08
2019-06-08T14:36:59.430Z,23.45
2019-06-08T14:39:31.402Z,23.46
2019-06-08T14:41:59.875Z,23.59
2019-06-08T14:44:32.231Z,23.83
2019-06-08T14:47:03.343Z,23.97
2019-06-08T14:49:34.991Z,24.49
2019-06-08T14:52:03.851Z,23.68
2019-06-08T14:54:35.154Z,24.04
2019-06-08T14:57:04.448Z,24.20
2019-06-08T14:59:33.834Z,24.27
2019-06-08T15:02:03.264Z,24.30
2019-06-08T15:04:36.460Z,24.12
2019-06-08T15:07:03.949Z,24.33
2019-06-08T15:09:33.509Z,23.71
2019-06-08T15:12:02.884Z,23.89
2019-06-08T15:14:34.631Z,23.88
2019-06-08T15:17:03.372Z,23.93
2019-06-08T15:19:32.767Z,23.98
2019-06-08T15:22:02.348Z,23.84
2019-06-08T15:24:32.944Z,23.54
2019-06-08T15:27:02.707Z,23.30
2019-06-08T15:29:32.832Z,23.27
2019-06-08T15:32:02.372Z,22.99
2019-06-08T15:34:33.048Z,23.23
2019-06-08T15:37:02.695Z,23.43
2019-06-08T15:39:34.064Z,23.61
2019-06-08T15:42:03.339Z,23.54
2019-06-08T15:44:33.926Z,23.59
2019-06-08T15:47:03.476Z,23.84
2019-06-08T15:49:33.942Z,24.33
2019-06-08T15:52:03.410Z,23.97
2019-06-08T15:54:36.241Z,23.97
2019-06-08T15:57:03.909Z,24.12
2019-06-08T15:59:38.910Z,24.38
2019-06-08T16:02:04.433Z,24.91
2019-06-08T16:04:33.990Z,24.88
2019-06-08T16:07:03.640Z,24.67
2019-06-08T16:09:34.258Z,25.04
2019-06-08T16:12:03.830Z,25.48
2019-06-08T16:14:33.247Z,25.98
2019-06-08T16:17:02.629Z,25.36
2019-06-08T16:19:33.590Z,25.88
2019-06-08T16:22:03.240Z,25.53
2019-06-08T16:24:33.897Z,25.45
2019-06-08T16:27:03.484Z,26.06
2019-06-08T16:29:33.333Z,25.58
2019-06-08T16:32:02.963Z,24.93
2019-06-08T16:34:33.580Z,24.61
2019-06-08T16:37:03.218Z,24.72
2019-06-08T16:39:32.878Z,24.85
2019-06-08T16:42:02.371Z,24.76
2019-06-08T16:44:32.275Z,24.60
2019-06-08T16:47:01.866Z,24.67
2019-06-08T16:49:31.324Z,24.84
2019-06-08T16:52:00.835Z,25.40
2019-06-08T16:54:30.653Z,26.09
2019-06-08T16:57:09.394Z,26.02
2019-06-08T16:59:32.260Z,25.72
2019-06-08T17:02:01.824Z,24.90
2019-06-08T17:04:31.397Z,24.44
2019-06-08T17:07:01.831Z,25.10
2019-06-08T17:09:32.507Z,25.74
2019-06-08T17:12:02.396Z,26.28
2019-06-08T17:14:32.077Z,25.92
2019-06-08T17:17:01.499Z,25.25
2019-06-08T17:19:31.927Z,25.64
2019-06-08T17:22:01.441Z,26.23
2019-06-08T17:24:30.893Z,26.66
2019-06-08T17:27:00.335Z,26.96
2019-06-08T17:29:30.726Z,27.35
2019-06-08T17:32:00.446Z,26.95
2019-06-08T17:34:29.949Z,26.04
2019-06-08T17:36:59.352Z,26.35
2019-06-08T17:39:29.500Z,25.49
2019-06-08T17:41:59.005Z,25.28
2019-06-08T17:44:28.448Z,24.71
2019-06-08T17:46:57.829Z,24.44
2019-06-08T17:49:27.283Z,24.34
2019-06-08T17:51:56.623Z,24.70
2019-06-08T17:54:26.007Z,25.35
2019-06-08T17:56:55.367Z,26.36
2019-06-08T17:59:24.777Z,27.48
2019-06-08T18:01:54.261Z,26.70
2019-06-08T18:04:23.625Z,27.63
2019-06-08T18:06:52.999Z,28.08
2019-06-08T18:09:22.837Z,28.19
2019-06-08T18:11:52.413Z,27.80
2019-06-08T18:14:21.736Z,27.79
2019-06-08T18:16:51.149Z,27.87
2019-06-08T18:19:28.420Z,26.97
2019-06-08T18:22:04.666Z,27.47
2019-06-08T18:24:29.242Z,27.76
2019-06-08T18:26:59.576Z,27.04
2019-06-08T18:29:28.941Z,26.09
2019-06-08T18:31:58.504Z,25.43
2019-06-08T18:34:28.806Z,24.87
2019-06-08T18:36:58.526Z,24.46
2019-06-08T18:39:29.202Z,24.10
2019-06-08T18:41:59.083Z,23.57
2019-06-08T18:44:28.779Z,23.05
2019-06-08T18:46:58.256Z,22.53
2019-06-08T18:49:28.758Z,22.48
2019-06-08T18:51:58.653Z,22.20
2019-06-08T18:54:28.284Z,22.04
2019-06-08T18:56:57.714Z,21.86
2019-06-08T18:59:28.679Z,21.59
2019-06-08T19:01:58.642Z,21.58
2019-06-08T19:04:30.803Z,21.50
2019-06-08T19:07:02.348Z,21.49
2019-06-08T19:09:32.408Z,21.26
2019-06-08T19:12:01.850Z,21.17
2019-06-08T19:14:31.465Z,21.10
2019-06-08T19:17:00.922Z,21.00
2019-06-08T19:19:31.556Z,21.00
2019-06-08T19:22:01.062Z,20.82
2019-06-08T19:24:30.594Z,20.73
2019-06-08T19:27:00.026Z,20.58
2019-06-08T19:29:29.430Z,20.54
2019-06-08T19:32:00.429Z,20.51
2019-06-08T19:34:33.242Z,20.48
2019-06-08T19:37:01.124Z,20.37
2019-06-08T19:39:30.504Z,20.36
2019-06-08T19:42:00.201Z,20.23
2019-06-08T19:44:29.823Z,20.11
2019-06-08T19:46:59.226Z,20.15
2019-06-08T19:49:28.584Z,20.10
2019-06-08T19:51:58.215Z,19.99
2019-06-08T19:54:27.876Z,19.98
2019-06-08T19:56:57.651Z,19.89
2019-06-08T19:59:27.718Z,19.84
2019-06-08T20:01:59.605Z,19.82
2019-06-08T20:04:28.334Z,19.80
2019-06-08T20:07:00.459Z,19.75
2019-06-08T20:09:28.993Z,19.68
2019-06-08T20:12:00.242Z,19.60
2019-06-08T20:14:29.560Z,19.53
2019-06-08T20:16:59.041Z,19.54
2019-06-08T20:19:28.443Z,19.46
2019-06-08T20:21:58.361Z,19.45
2019-06-08T20:24:28.211Z,19.34
2019-06-08T20:26:57.645Z,19.29
2019-06-08T20:29:28.301Z,19.25
2019-06-08T20:31:58.427Z,19.21
2019-06-08T20:34:28.197Z,19.22
2019-06-08T20:37:01.170Z,19.21
2019-06-08T20:39:28.780Z,19.17
2019-06-08T20:41:58.676Z,19.08
2019-06-08T20:44:30.241Z,19.03
2019-06-08T20:46:59.406Z,18.98
2019-06-08T20:49:28.890Z,18.84
2019-06-08T20:52:00.351Z,18.78
2019-06-08T20:54:29.561Z,18.64
2019-06-08T20:56:58.962Z,18.52
2019-06-08T20:59:33.203Z,18.41
2019-06-08T21:01:59.464Z,18.33
2019-06-08T21:04:29.068Z,18.33
2019-06-08T21:06:58.593Z,18.31
2019-06-08T21:09:28.093Z,18.25
2019-06-08T21:11:58.712Z,18.22
2019-06-08T21:14:28.486Z,18.16
2019-06-08T21:16:58.530Z,18.08
2019-06-08T21:19:28.372Z,18.08
2019-06-08T21:21:59.317Z,18.03
2019-06-08T21:24:29.134Z,18.05
2019-06-08T21:27:00.729Z,18.04
2019-06-08T21:29:46.948Z,17.97
2019-06-08T21:32:02.583Z,17.95
2019-06-08T21:34:31.962Z,17.90
2019-06-08T21:37:01.489Z,17.78
2019-06-08T21:39:31.016Z,17.73
2019-06-08T21:42:03.066Z,17.66
2019-06-08T21:44:31.593Z,17.66
2019-06-08T21:47:01.592Z,17.64
2019-06-08T21:49:31.121Z,17.63
2019-06-08T21:52:01.267Z,17.56
2019-06-08T21:54:30.999Z,17.50
2019-06-08T21:57:01.095Z,17.40
2019-06-08T21:59:30.695Z,17.45
2019-06-08T22:02:02.656Z,17.40
2019-06-08T22:04:31.360Z,17.33
2019-06-08T22:07:03.165Z,17.24
2019-06-08T22:09:32.942Z,17.18
2019-06-08T22:12:03.290Z,17.16
2019-06-08T22:14:33.078Z,17.15
2019-06-08T22:17:03.249Z,17.02
2019-06-08T22:19:32.823Z,16.99
2019-06-08T22:22:03.868Z,16.92
2019-06-08T22:24:33.602Z,16.88
2019-06-08T22:27:03.707Z,16.85
2019-06-08T22:29:33.188Z,16.80
2019-06-08T22:32:03.947Z,16.72
2019-06-08T22:34:33.422Z,16.68
2019-06-08T22:37:03.184Z,16.63
2019-06-08T22:39:32.814Z,16.63
2019-06-08T22:42:02.224Z,16.53
2019-06-08T22:44:31.890Z,16.46
2019-06-08T22:47:03.236Z,16.48
2019-06-08T22:49:32.632Z,16.46
2019-06-08T22:52:03.040Z,16.37
2019-06-08T22:54:33.122Z,16.35
2019-06-08T22:57:04.406Z,16.29
2019-06-08T22:59:33.763Z,16.24
2019-06-08T23:02:05.711Z,16.15
2019-06-08T23:04:34.314Z,16.04
2019-06-08T23:07:06.143Z,15.98
2019-06-08T23:09:37.171Z,15.97
2019-06-08T23:12:09.336Z,15.91
2019-06-08T23:14:37.658Z,15.84
2019-06-08T23:17:08.618Z,15.79
2019-06-08T23:19:38.182Z,15.80
2019-06-08T23:22:08.350Z,15.81
2019-06-08T23:24:38.391Z,15.73
2019-06-08T23:27:07.883Z,15.71
2019-06-08T23:29:38.192Z,15.58
2019-06-08T23:32:11.466Z,15.57
2019-06-08T23:34:39.002Z,15.69
2019-06-08T23:37:12.737Z,15.70
2019-06-08T23:39:39.552Z,15.58
2019-06-08T23:42:08.971Z,15.55
2019-06-08T23:44:38.345Z,15.48
2019-06-08T23:47:08.118Z,15.39
2019-06-08T23:49:38.049Z,15.25
2019-06-08T23:52:10.416Z,15.23
2019-06-08T23:54:38.830Z,15.11
2019-06-08T23:57:10.104Z,15.09
2019-06-08T23:59:39.500Z,15.01
